Time;durP1;ratioP1;P1;durP2;ratioP2;P2;SDS_P1;SDS_P2;PMS_P1;PMS_P2;Temp;Humidity;BMP_temperature;BMP_pressure;BME280_temperature;BME280_humidity;BME280_pressure;Samples;Min_cycle;Max_cycle;Signal;HPM_P1;HPM_P2
2022/09/19 00:00:18;;;;;;;;;;;;;;;;;;5053010;28;19928;-67
2022/09/19 00:02:44;;;;;;;;;;;;;;;;;;5052307;28;19913;-67
2022/09/19 00:05:09;;;;;;;;;;;;;;;;;;5053136;28;20072;-66
2022/09/19 00:07:35;;;;;;;;;;;;;;;;;;5051855;28;19932;-67
2022/09/19 00:10:01;;;;;;;;;;;;;;;;;;5052726;28;19999;-67
2022/09/19 00:12:28;;;;;;;;;;;;;;;;;;5052805;28;20281;-67
2022/09/19 00:14:56;;;;;;;;;;;;;;;;;;5052609;28;19905;-67
2022/09/19 00:17:22;;;;;;;;;;;;;;;;;;5052479;28;19913;-66
2022/09/19 00:19:47;;;;;;;;;;;;;;;;;;5052838;28;19905;-68
2022/09/19 00:22:13;;;;;;;;;;;;;;;;;;5052788;28;20353;-66
2022/09/19 00:24:45;;;;;;;;;;;;;;;;;;5052396;28;19904;-67
2022/09/19 00:27:11;;;;;;;;;;;;;;;;;;5052982;28;19980;-67
2022/09/19 00:29:37;;;;;;;;;;;;;;;;;;5052773;28;20510;-66
2022/09/19 00:32:07;;;;;;;;;;;;;;;;;;5052318;28;19905;-66
2022/09/19 00:34:32;;;;;;;;;;;;;;;;;;5051137;28;19913;-65
2022/09/19 00:36:58;;;;;;;;;;;;;;;;;;5047472;28;19973;-66
2022/09/19 00:39:24;;;;;;;;;;;;;;;;;;5052618;28;19904;-66
2022/09/19 00:41:50;;;;;;;;;;;;;;;;;;5052427;28;19913;-65
2022/09/19 00:44:16;;;;;;;;;;;;;;;;;;5052179;28;20258;-67
2022/09/19 00:46:42;;;;;;;;;;;;;;;;;;5051688;28;19913;-66
2022/09/19 00:49:08;;;;;;;;;;;;;;;;;;5052361;28;19946;-66
2022/09/19 00:51:35;;;;;;;;;;;;;;;;;;5045803;28;19905;-66
2022/09/19 00:54:01;;;;;;;;;;;;;;;;;;5052084;28;19915;-66
2022/09/19 00:56:27;;;;;;;;;;;;;;;;;;5051659;28;19921;-66
2022/09/19 00:58:53;;;;;;;;;;;;;;;;;;5052222;28;20254;-66
2022/09/19 01:01:20;;;;;;;;;;;;;;;;;;5051319;28;19912;-66
2022/09/19 01:03:46;;;;;;;;;;;;;;;;;;5052011;28;19904;-66
2022/09/19 01:06:12;;;;;;;;;;;;;;;;;;5052121;28;19928;-66
2022/09/19 01:08:38;;;;;;;;;;;;;;;;;;5050088;28;20369;-67
2022/09/19 01:11:04;;;;;;;;;;;;;;;;;;5051626;28;20360;-66
2022/09/19 01:13:30;;;;;;;;;;;;;;;;;;5052000;28;19936;-66
2022/09/19 01:15:56;;;;;;;;;;;;;;;;;;5051112;28;19921;-65
2022/09/19 01:18:22;;;;;;;;;;;;;;;;;;5051214;28;20255;-67
2022/09/19 01:20:48;;;;;;;;;;;;;;;;;;5051308;28;19919;-67
2022/09/19 01:23:15;;;;;;;;;;;;;;;;;;5051221;28;19909;-66
2022/09/19 01:25:45;;;;;;;;;;;;;;;;;;5051557;28;20441;-68
2022/09/19 01:28:13;;;;;;;;;;;;;;;;;;5051524;28;20425;-67
2022/09/19 01:30:39;;;;;;;;;;;;;;;;;;5051130;28;19954;-67
2022/09/19 01:33:05;;;;;;;;;;;;;;;;;;5051327;28;19995;-67
2022/09/19 01:35:31;;;;;;;;;;;;;;;;;;5051300;28;19913;-67
2022/09/19 01:38:00;;;;;;;;;;;;;;;;;;5051314;28;19905;-67
2022/09/19 01:40:26;;;;;;;;;;;;;;;;;;5048770;28;20388;-67
2022/09/19 01:42:55;;;;;;;;;;;;;;;;;;5051337;28;19997;-67
2022/09/19 01:45:21;;;;;;;;;;;;;;;;;;5051227;28;19911;-66
2022/09/19 01:47:47;;;;;;;;;;;;;;;;;;5051239;28;19909;-67
2022/09/19 01:50:13;;;;;;;;;;;;;;;;;;5051143;28;20400;-67
2022/09/19 01:52:39;;;;;;;;;;;;;;;;;;5050758;28;19911;-67
2022/09/19 01:55:06;;;;;;;;;;;;;;;;;;5032947;28;19955;-65
2022/09/19 01:57:32;;;;;;;;;;;;;;;;;;5050543;28;19983;-67
2022/09/19 01:59:57;;;;;;;;;;;;;;;;;;5050636;28;19908;-67
2022/09/19 02:02:23;;;;;;;;;;;;;;;;;;5051147;28;20408;-67
2022/09/19 02:04:49;;;;;;;;;;;;;;;;;;5050897;28;19915;-66
2022/09/19 02:07:15;;;;;;;;;;;;;;;;;;5050815;28;20327;-66
2022/09/19 02:09:41;;;;;;;;;;;;;;;;;;5050671;28;19911;-67
2022/09/19 02:12:07;;;;;;;;;;;;;;;;;;5050824;28;19904;-67
2022/09/19 02:14:34;;;;;;;;;;;;;;;;;;5050304;28;19908;-66
2022/09/19 02:17:03;;;;;;;;;;;;;;;;;;5044244;28;19958;-67
2022/09/19 02:19:33;;;;;;;;;;;;;;;;;;5045110;28;20281;-67
2022/09/19 02:21:59;;;;;;;;;;;;;;;;;;5044904;28;19909;-67
2022/09/19 02:24:27;;;;;;;;;;;;;;;;;;5050191;28;19911;-68
2022/09/19 02:26:53;;;;;;;;;;;;;;;;;;5050169;28;19905;-67
2022/09/19 02:29:20;;;;;;;;;;;;;;;;;;5050596;28;19996;-67
2022/09/19 02:31:46;;;;;;;;;;;;;;;;;;5055011;28;20299;-67
2022/09/19 02:34:12;;;;;;;;;;;;;;;;;;5054641;28;19909;-66
2022/09/19 02:36:38;;;;;;;;;;;;;;;;;;5054438;28;20361;-66
2022/09/19 02:39:04;;;;;;;;;;;;;;;;;;5049566;28;20000;-67
2022/09/19 02:41:30;;;;;;;;;;;;;;;;;;5053216;28;19916;-66
2022/09/19 02:43:57;;;;;;;;;;;;;;;;;;5054741;28;19912;-67
2022/09/19 02:46:23;;;;;;;;;;;;;;;;;;5054071;28;19915;-66
2022/09/19 02:48:49;;;;;;;;;;;;;;;;;;5054767;28;19905;-66
2022/09/19 02:51:15;;;;;;;;;;;;;;;;;;5054336;28;20011;-66
2022/09/19 02:53:41;;;;;;;;;;;;;;;;;;5054133;28;20332;-67
2022/09/19 02:56:06;;;;;;;;;;;;;;;;;;5053809;28;19923;-67
2022/09/19 02:58:32;;;;;;;;;;;;;;;;;;5054242;28;20356;-66
2022/09/19 03:00:58;;;;;;;;;;;;;;;;;;5054731;28;19905;-67
2022/09/19 03:06:08;;;;;;;;;;;;;;;;;;5054427;28;19916;-67
2022/09/19 03:08:36;;;;;;;;;;;;;;;;;;5054077;28;19931;-66
2022/09/19 03:11:02;;;;;;;;;;;;;;;;;;5053427;28;20301;-64
2022/09/19 03:13:27;;;;;;;;;;;;;;;;;;5053771;28;19909;-66
2022/09/19 03:15:56;;;;;;;;;;;;;;;;;;5054176;28;19923;-65
2022/09/19 03:18:22;;;;;;;;;;;;;;;;;;5053519;28;19905;-67
2022/09/19 03:20:48;;;;;;;;;;;;;;;;;;5054478;28;19905;-66
2022/09/19 03:23:15;;;;;;;;;;;;;;;;;;5053996;28;20289;-66
2022/09/19 03:25:41;;;;;;;;;;;;;;;;;;5053668;28;19921;-66
2022/09/19 03:28:08;;;;;;;;;;;;;;;;;;5054196;28;20353;-64
2022/09/19 03:30:34;;;;;;;;;;;;;;;;;;5053713;28;20274;-65
2022/09/19 03:33:00;;;;;;;;;;;;;;;;;;5053786;28;19912;-66
2022/09/19 03:35:26;;;;;;;;;;;;;;;;;;5053653;28;20025;-66
2022/09/19 03:37:52;;;;;;;;;;;;;;;;;;5054145;28;19920;-66
2022/09/19 03:40:18;;;;;;;;;;;;;;;;;;5053255;28;19990;-64
2022/09/19 03:42:46;;;;;;;;;;;;;;;;;;5053758;28;20277;-66
2022/09/19 03:45:11;;;;;;;;;;;;;;;;;;5053660;28;19905;-65
2022/09/19 03:47:38;;;;;;;;;;;;;;;;;;5053596;28;19915;-66
2022/09/19 03:50:06;;;;;;;;;;;;;;;;;;5053908;28;20300;-66
2022/09/19 03:52:33;;;;;;;;;;;;;;;;;;5053593;28;19905;-66
2022/09/19 03:55:00;;;;;;;;;;;;;;;;;;5053283;28;19991;-66
2022/09/19 03:57:26;;;;;;;;;;;;;;;;;;5052887;28;20705;-65
2022/09/19 03:59:52;;;;;;;;;;;;;;;;;;5053440;28;20011;-66
2022/09/19 04:02:17;;;;;;;;;;;;;;;;;;5053524;28;19912;-66
2022/09/19 04:04:43;;;;;;;;;;;;;;;;;;5052927;28;19904;-65
2022/09/19 04:07:09;;;;;;;;;;;;;;;;;;5052774;28;19909;-66
2022/09/19 04:09:35;;;;;;;;;;;;;;;;;;5052918;28;19916;-66
2022/09/19 04:12:03;;;;;;;;;;;;;;;;;;5053047;28;20277;-67
2022/09/19 04:14:29;;;;;;;;;;;;;;;;;;5052937;28;19927;-66
2022/09/19 04:16:56;;;;;;;;;;;;;;;;;;5052575;28;20396;-66
2022/09/19 04:19:26;;;;;;;;;;;;;;;;;;5046403;28;19905;-66
2022/09/19 04:21:51;;;;;;;;;;;;;;;;;;5052726;28;19905;-66
2022/09/19 04:24:18;;;;;;;;;;;;;;;;;;5052358;28;19905;-65
2022/09/19 04:26:44;;;;;;;;;;;;;;;;;;5052139;28;20471;-66
2022/09/19 04:29:09;;;;;;;;;;;;;;;;;;5052825;28;19909;-66
2022/09/19 04:31:39;;;;;;;;;;;;;;;;;;5052754;28;20345;-67
2022/09/19 04:34:05;;;;;;;;;;;;;;;;;;5052639;28;19904;-67
2022/09/19 04:36:31;;;;;;;;;;;;;;;;;;5050727;28;20286;-66
2022/09/19 04:39:02;;;;;;;;;;;;;;;;;;5052634;28;19904;-67
2022/09/19 04:41:29;;;;;;;;;;;;;;;;;;5052778;28;19905;-66
2022/09/19 04:43:56;;;;;;;;;;;;;;;;;;5045564;28;20370;-66
2022/09/19 04:46:22;;;;;;;;;;;;;;;;;;5052074;28;19909;-64
2022/09/19 04:48:48;;;;;;;;;;;;;;;;;;5052049;28;19996;-66
2022/09/19 04:51:14;;;;;;;;;;;;;;;;;;5052094;28;19999;-67
2022/09/19 04:53:40;;;;;;;;;;;;;;;;;;5050976;28;19913;-66
2022/09/19 04:56:06;;;;;;;;;;;;;;;;;;5051638;28;19916;-66
2022/09/19 04:58:32;;;;;;;;;;;;;;;;;;5052429;28;20445;-66
2022/09/19 05:00:58;;;;;;;;;;;;;;;;;;5052574;28;19905;-66
2022/09/19 05:03:26;;;;;;;;;;;;;;;;;;5052498;28;19909;-66
2022/09/19 05:05:52;;;;;;;;;;;;;;;;;;5052111;28;19913;-65
2022/09/19 05:08:19;;;;;;;;;;;;;;;;;;5051409;28;20330;-65
2022/09/19 05:10:45;;;;;;;;;;;;;;;;;;5052231;28;19999;-65
2022/09/19 05:13:11;;;;;;;;;;;;;;;;;;5051958;28;19904;-64
2022/09/19 05:15:41;;;;;;;;;;;;;;;;;;5051447;28;19913;-65
2022/09/19 05:18:07;;;;;;;;;;;;;;;;;;5051454;28;19916;-64
2022/09/19 05:20:33;;;;;;;;;;;;;;;;;;5051371;28;19912;-65
2022/09/19 05:22:59;;;;;;;;;;;;;;;;;;5050954;28;19927;-66
2022/09/19 05:25:25;;;;;;;;;;;;;;;;;;5052475;28;19947;-65
2022/09/19 05:27:51;;;;;;;;;;;;;;;;;;5051379;28;19913;-66
2022/09/19 05:30:17;;;;;;;;;;;;;;;;;;5045244;28;19912;-64
2022/09/19 05:32:44;;;;;;;;;;;;;;;;;;5051320;28;19916;-66
2022/09/19 05:35:10;;;;;;;;;;;;;;;;;;5051162;28;19948;-66
2022/09/19 05:37:36;;;;;;;;;;;;;;;;;;5051092;28;20009;-67
2022/09/19 05:40:03;;;;;;;;;;;;;;;;;;5051650;28;19905;-65
2022/09/19 05:42:29;;;;;;;;;;;;;;;;;;5051098;28;19912;-65
2022/09/19 05:44:55;;;;;;;;;;;;;;;;;;5051243;28;19905;-65
2022/09/19 05:47:21;;;;;;;;;;;;;;;;;;5051617;28;19912;-65
2022/09/19 05:49:47;;;;;;;;;;;;;;;;;;5051389;28;19905;-65
2022/09/19 05:54:58;;;;;;;;;;;;;;;;;;5047180;28;19911;-65
2022/09/19 05:57:23;;;;;;;;;;;;;;;;;;5050608;28;19950;-65
2022/09/19 05:59:49;;;;;;;;;;;;;;;;;;5051640;28;20336;-64
2022/09/19 06:02:16;;;;;;;;;;;;;;;;;;5050913;28;19904;-64
2022/09/19 06:04:42;;;;;;;;;;;;;;;;;;5049783;28;19909;-65
2022/09/19 06:07:08;;;;;;;;;;;;;;;;;;5050733;28;19905;-67
2022/09/19 06:09:34;;;;;;;;;;;;;;;;;;5051262;28;19905;-64
2022/09/19 06:12:00;;;;;;;;;;;;;;;;;;5050838;28;19999;-65
2022/09/19 06:14:27;;;;;;;;;;;;;;;;;;5050436;28;19912;-63
2022/09/19 06:16:53;;;;;;;;;;;;;;;;;;5050603;28;19921;-66
2022/09/19 06:19:19;;;;;;;;;;;;;;;;;;5050793;28;19995;-65
2022/09/19 06:21:45;;;;;;;;;;;;;;;;;;5050646;28;19981;-65
2022/09/19 06:24:11;;;;;;;;;;;;;;;;;;5050829;28;19904;-64
2022/09/19 06:26:37;;;;;;;;;;;;;;;;;;5050568;28;19912;-65
2022/09/19 06:29:03;;;;;;;;;;;;;;;;;;5050481;28;19958;-65
2022/09/19 06:31:29;;;;;;;;;;;;;;;;;;5051352;28;19940;-65
2022/09/19 06:33:55;;;;;;;;;;;;;;;;;;5049855;28;19959;-65
2022/09/19 06:36:21;;;;;;;;;;;;;;;;;;5050374;28;19913;-65
2022/09/19 06:38:47;;;;;;;;;;;;;;;;;;5049380;28;19905;-66
2022/09/19 06:41:13;;;;;;;;;;;;;;;;;;5050648;28;19913;-66
2022/09/19 06:43:39;;;;;;;;;;;;;;;;;;5050264;28;19948;-65
2022/09/19 06:46:05;;;;;;;;;;;;;;;;;;5050708;28;20018;-67
2022/09/19 06:48:31;;;;;;;;;;;;;;;;;;5044083;28;19911;-66
2022/09/19 06:50:57;;;;;;;;;;;;;;;;;;5050561;28;19911;-67
2022/09/19 06:53:22;;;;;;;;;;;;;;;;;;5051038;28;20012;-64
2022/09/19 06:55:48;;;;;;;;;;;;;;;;;;5049850;28;19999;-65
2022/09/19 06:58:15;;;;;;;;;;;;;;;;;;5050317;28;19924;-65
2022/09/19 07:00:44;;;;;;;;;;;;;;;;;;5050390;28;19915;-65
2022/09/19 07:03:10;;;;;;;;;;;;;;;;;;5050502;28;19913;-66
2022/09/19 07:05:36;;;;;;;;;;;;;;;;;;5050484;28;19935;-66
2022/09/19 07:08:02;;;;;;;;;;;;;;;;;;5050505;28;20645;-65
2022/09/19 07:10:28;;;;;;;;;;;;;;;;;;5050401;28;19950;-65
2022/09/19 07:12:55;;;;;;;;;;;;;;;;;;5050238;28;19909;-65
2022/09/19 07:15:21;;;;;;;;;;;;;;;;;;5050812;28;19909;-66
2022/09/19 07:17:47;;;;;;;;;;;;;;;;;;5053668;28;20228;-65
2022/09/19 07:20:13;;;;;;;;;;;;;;;;;;5047452;28;19909;-66
2022/09/19 07:22:39;;;;;;;;;;;;;;;;;;5053758;28;20400;-67
2022/09/19 07:25:07;;;;;;;;;;;;;;;;;;5054143;28;19908;-65
2022/09/19 07:27:33;;;;;;;;;;;;;;;;;;5054233;28;20285;-66
2022/09/19 07:29:59;;;;;;;;;;;;;;;;;;5053721;28;19912;-65
2022/09/19 07:32:25;;;;;;;;;;;;;;;;;;5052526;28;19992;-67
2022/09/19 07:34:51;;;;;;;;;;;;;;;;;;5054501;28;19909;-67
2022/09/19 07:37:17;;;;;;;;;;;;;;;;;;5047352;28;19916;-66
2022/09/19 07:39:43;;;;;;;;;;;;;;;;;;5053093;28;19993;-66
2022/09/19 07:42:09;;;;;;;;;;;;;;;;;;5053518;28;19963;-66
2022/09/19 07:44:35;;;;;;;;;;;;;;;;;;5053251;28;19952;-66
2022/09/19 07:49:45;;;;;;;;;;;;;;;;;;5048366;28;19954;-66
2022/09/19 07:52:11;;;;;;;;;;;;;;;;;;5053447;28;19904;-66
2022/09/19 07:54:37;;;;;;;;;;;;;;;;;;5052820;28;19908;-65
2022/09/19 07:57:03;;;;;;;;;;;;;;;;;;5053128;28;19921;-66
2022/09/19 07:59:29;;;;;;;;;;;;;;;;;;5053367;28;19912;-65
2022/09/19 08:01:55;;;;;;;;;;;;;;;;;;5046062;28;20007;-66
2022/09/19 08:04:21;;;;;;;;;;;;;;;;;;5052980;28;19928;-66
2022/09/19 08:06:47;;;;;;;;;;;;;;;;;;5053120;28;19999;-65
2022/09/19 08:09:13;;;;;;;;;;;;;;;;;;5052948;28;20014;-66
2022/09/19 08:11:39;;;;;;;;;;;;;;;;;;5053136;28;19908;-64
2022/09/19 08:14:05;;;;;;;;;;;;;;;;;;5053066;28;19905;-66
2022/09/19 08:16:31;;;;;;;;;;;;;;;;;;5051667;28;19917;-64
2022/09/19 08:18:58;;;;;;;;;;;;;;;;;;5046192;28;19909;-59
2022/09/19 08:21:24;;;;;;;;;;;;;;;;;;5049847;28;19972;-59
2022/09/19 08:23:50;;;;;;;;;;;;;;;;;;5049071;28;19919;-60
2022/09/19 08:26:16;;;;;;;;;;;;;;;;;;5044358;28;20087;-59
2022/09/19 08:28:42;;;;;;;;;;;;;;;;;;5051406;28;19913;-59
2022/09/19 08:31:09;;;;;;;;;;;;;;;;;;5052075;28;19958;-60
2022/09/19 08:33:35;;;;;;;;;;;;;;;;;;5051726;28;19944;-61
2022/09/19 08:36:01;;;;;;;;;;;;;;;;;;5050810;28;19971;-59
2022/09/19 08:38:27;;;;;;;;;;;;;;;;;;5052496;28;20458;-60
2022/09/19 08:40:53;;;;;;;;;;;;;;;;;;5053188;28;19909;-60
2022/09/19 08:43:19;;;;;;;;;;;;;;;;;;5045630;28;19913;-58
2022/09/19 08:45:44;;;;;;;;;;;;;;;;;;5047652;28;20402;-59
2022/09/19 08:48:10;;;;;;;;;;;;;;;;;;5051902;28;19905;-60
2022/09/19 08:50:36;;;;;;;;;;;;;;;;;;5048910;28;20333;-59
2022/09/19 08:53:02;;;;;;;;;;;;;;;;;;5050968;28;19915;-59
2022/09/19 08:55:28;;;;;;;;;;;;;;;;;;5050988;28;20440;-60
2022/09/19 08:57:54;;;;;;;;;;;;;;;;;;5050946;28;20023;-59
2022/09/19 09:00:20;;;;;;;;;;;;;;;;;;5047147;28;19908;-59
2022/09/19 09:02:46;;;;;;;;;;;;;;;;;;5051305;28;19905;-60
2022/09/19 09:05:12;;;;;;;;;;;;;;;;;;5050761;28;19915;-60
2022/09/19 09:07:38;;;;;;;;;;;;;;;;;;5050874;28;19911;-58
2022/09/19 09:10:04;;;;;;;;;;;;;;;;;;5051030;28;19909;-59
2022/09/19 09:12:31;;;;;;;;;;;;;;;;;;5047716;28;19916;-59
2022/09/19 09:15:01;;;;;;;;;;;;;;;;;;5050342;28;19905;-68
2022/09/19 09:17:27;;;;;;;;;;;;;;;;;;5050560;28;19913;-68
2022/09/19 09:19:53;;;;;;;;;;;;;;;;;;5050362;28;19919;-68
2022/09/19 09:22:19;;;;;;;;;;;;;;;;;;5047622;28;20003;-68
2022/09/19 09:24:44;;;;;;;;;;;;;;;;;;5049926;28;19905;-66
2022/09/19 09:27:10;;;;;;;;;;;;;;;;;;5050321;28;19915;-66
2022/09/19 09:29:36;;;;;;;;;;;;;;;;;;5049943;28;19908;-68
2022/09/19 09:32:02;;;;;;;;;;;;;;;;;;5050551;28;20153;-69
2022/09/19 09:34:28;;;;;;;;;;;;;;;;;;5050359;28;19908;-69
2022/09/19 09:36:55;;;;;;;;;;;;;;;;;;5050660;28;19913;-68
2022/09/19 09:39:20;;;;;;;;;;;;;;;;;;5049926;28;19909;-67
2022/09/19 09:41:49;;;;;;;;;;;;;;;;;;5049899;28;19991;-68
2022/09/19 09:44:16;;;;;;;;;;;;;;;;;;5049930;28;19912;-68
2022/09/19 09:46:43;;;;;;;;;;;;;;;;;;5046723;28;19905;-67
2022/09/19 09:49:09;;;;;;;;;;;;;;;;;;5046645;28;19958;-67
2022/09/19 09:51:38;;;;;;;;;;;;;;;;;;5049843;28;19908;-68
2022/09/19 09:54:04;;;;;;;;;;;;;;;;;;5050179;28;19904;-67
2022/09/19 09:56:29;;;;;;;;;;;;;;;;;;5048862;28;19921;-68
2022/09/19 09:58:55;;;;;;;;;;;;;;;;;;5049420;28;20276;-68
2022/09/19 10:04:06;;;;;;;;;;;;;;;;;;5049521;28;20070;-67
2022/09/19 10:06:32;;;;;;;;;;;;;;;;;;5049134;28;20413;-68
2022/09/19 10:09:00;;;;;;;;;;;;;;;;;;5049543;28;19951;-69
2022/09/19 10:11:25;;;;;;;;;;;;;;;;;;5048829;28;19915;-67
2022/09/19 10:13:56;;;;;;;;;;;;;;;;;;5049199;28;20313;-68
2022/09/19 10:16:23;;;;;;;;;;;;;;;;;;5049672;28;19970;-71
2022/09/19 10:18:49;;;;;;;;;;;;;;;;;;5048996;28;19958;-68
2022/09/19 10:21:15;;;;;;;;;;;;;;;;;;5049414;28;19913;-69
2022/09/19 10:23:44;;;;;;;;;;;;;;;;;;5048282;28;20785;-67
2022/09/19 10:26:15;;;;;;;;;;;;;;;;;;5048961;28;19927;-68
2022/09/19 10:28:43;;;;;;;;;;;;;;;;;;5048702;28;19939;-68
2022/09/19 10:31:09;;;;;;;;;;;;;;;;;;5048659;28;19916;-67
2022/09/19 10:33:38;;;;;;;;;;;;;;;;;;5049365;28;19904;-68
2022/09/19 10:36:03;;;;;;;;;;;;;;;;;;5051144;28;19931;-70
2022/09/19 10:38:30;;;;;;;;;;;;;;;;;;5050214;28;20362;-69
2022/09/19 10:40:57;;;;;;;;;;;;;;;;;;5050456;28;19943;-69
2022/09/19 10:43:23;;;;;;;;;;;;;;;;;;5049676;28;20367;-68
2022/09/19 10:45:49;;;;;;;;;;;;;;;;;;5050638;28;19999;-68
2022/09/19 10:48:16;;;;;;;;;;;;;;;;;;5050529;28;19999;-68
2022/09/19 10:50:42;;;;;;;;;;;;;;;;;;5050317;28;20437;-69
2022/09/19 10:53:08;;;;;;;;;;;;;;;;;;5053642;28;19935;-68
2022/09/19 10:55:34;;;;;;;;;;;;;;;;;;5053498;28;19960;-68
2022/09/19 10:58:03;;;;;;;;;;;;;;;;;;5054148;28;19917;-68
2022/09/19 11:00:29;;;;;;;;;;;;;;;;;;5053869;28;20289;-70
2022/09/19 11:02:54;;;;;;;;;;;;;;;;;;5054139;28;19912;-69
2022/09/19 11:05:21;;;;;;;;;;;;;;;;;;5054159;28;20254;-70
2022/09/19 11:07:48;;;;;;;;;;;;;;;;;;5053977;28;19905;-69
2022/09/19 11:10:14;;;;;;;;;;;;;;;;;;5053291;28;19904;-69
2022/09/19 11:12:42;;;;;;;;;;;;;;;;;;5054275;28;20361;-69
2022/09/19 11:15:08;;;;;;;;;;;;;;;;;;5053780;28;19915;-69
2022/09/19 11:17:34;;;;;;;;;;;;;;;;;;5053942;28;20015;-70
2022/09/19 11:20:00;;;;;;;;;;;;;;;;;;5054080;28;19905;-69
2022/09/19 11:22:26;;;;;;;;;;;;;;;;;;5053594;28;19912;-70
2022/09/19 11:24:53;;;;;;;;;;;;;;;;;;5053663;28;19954;-68
2022/09/19 11:27:19;;;;;;;;;;;;;;;;;;5053951;28;20360;-70
2022/09/19 11:29:45;;;;;;;;;;;;;;;;;;5053974;28;20000;-69
2022/09/19 11:32:11;;;;;;;;;;;;;;;;;;5053843;28;19905;-69
2022/09/19 11:34:37;;;;;;;;;;;;;;;;;;5053538;28;19984;-69
2022/09/19 11:37:03;;;;;;;;;;;;;;;;;;5035428;28;20289;-68
2022/09/19 11:39:30;;;;;;;;;;;;;;;;;;5053106;28;19905;-69
2022/09/19 11:41:56;;;;;;;;;;;;;;;;;;5046606;28;20396;-69
2022/09/19 11:44:23;;;;;;;;;;;;;;;;;;5053715;28;19913;-69
2022/09/19 11:46:49;;;;;;;;;;;;;;;;;;5052662;28;20357;-69
2022/09/19 11:49:15;;;;;;;;;;;;;;;;;;5053728;28;19932;-69
2022/09/19 11:51:41;;;;;;;;;;;;;;;;;;5052997;28;19943;-69
2022/09/19 11:54:07;;;;;;;;;;;;;;;;;;5052529;28;19905;-68
2022/09/19 11:56:36;;;;;;;;;;;;;;;;;;5052785;28;19916;-70
2022/09/19 11:59:02;;;;;;;;;;;;;;;;;;5053677;28;19936;-71
2022/09/19 12:01:28;;;;;;;;;;;;;;;;;;5051454;28;20322;-69
2022/09/19 12:03:56;;;;;;;;;;;;;;;;;;5052987;28;19966;-69
2022/09/19 12:06:24;;;;;;;;;;;;;;;;;;5053473;28;19905;-69
2022/09/19 12:08:50;;;;;;;;;;;;;;;;;;5053174;28;19904;-69
2022/09/19 12:11:17;;;;;;;;;;;;;;;;;;5051884;28;20290;-69
2022/09/19 12:13:43;;;;;;;;;;;;;;;;;;5052921;28;20392;-69
2022/09/19 12:16:10;;;;;;;;;;;;;;;;;;5052857;28;19912;-69
2022/09/19 12:18:36;;;;;;;;;;;;;;;;;;5052942;28;20444;-68
2022/09/19 12:21:02;;;;;;;;;;;;;;;;;;5052884;28;19978;-70
2022/09/19 12:26:12;;;;;;;;;;;;;;;;;;5052828;28;19990;-70
2022/09/19 12:28:38;;;;;;;;;;;;;;;;;;5053613;28;19913;-69
2022/09/19 12:31:04;;;;;;;;;;;;;;;;;;5053161;28;20278;-68
2022/09/19 12:33:31;;;;;;;;;;;;;;;;;;5052608;28;19959;-70
2022/09/19 12:35:58;;;;;;;;;;;;;;;;;;5052413;28;19917;-70
2022/09/19 12:38:24;;;;;;;;;;;;;;;;;;5052265;28;20351;-70
2022/09/19 12:40:51;;;;;;;;;;;;;;;;;;5052999;28;20281;-71
2022/09/19 12:43:17;;;;;;;;;;;;;;;;;;5052631;28;19962;-69
2022/09/19 12:45:44;;;;;;;;;;;;;;;;;;5052464;28;20344;-70
2022/09/19 12:48:12;;;;;;;;;;;;;;;;;;5052596;28;19904;-70
2022/09/19 12:50:40;;;;;;;;;;;;;;;;;;5052183;28;19911;-69
2022/09/19 12:53:05;;;;;;;;;;;;;;;;;;5052334;28;19909;-70
2022/09/19 12:55:32;;;;;;;;;;;;;;;;;;5052532;28;19905;-69
2022/09/19 12:57:59;;;;;;;;;;;;;;;;;;5052351;28;19938;-67
2022/09/19 13:00:24;;;;;;;;;;;;;;;;;;5052163;28;19952;-68
2022/09/19 13:02:51;;;;;;;;;;;;;;;;;;5052398;28;20361;-68
2022/09/19 13:05:22;;;;;;;;;;;;;;;;;;5052226;28;19904;-67
2022/09/19 13:07:47;;;;;;;;;;;;;;;;;;5052076;28;19986;-66
2022/09/19 13:10:13;;;;;;;;;;;;;;;;;;5051835;28;19948;-69
2022/09/19 13:12:39;;;;;;;;;;;;;;;;;;5052191;28;19905;-68
2022/09/19 13:15:05;;;;;;;;;;;;;;;;;;5051136;28;19904;-68
2022/09/19 13:25:45;;;;;;;;;;;;;;;;;;5052057;28;19995;-69
2022/09/19 13:28:11;;;;;;;;;;;;;;;;;;5051425;28;19999;-67
2022/09/19 13:30:37;;;;;;;;;;;;;;;;;;5051119;28;19908;-68
2022/09/19 13:33:03;;;;;;;;;;;;;;;;;;5045378;28;20324;-66
2022/09/19 13:35:29;;;;;;;;;;;;;;;;;;5049446;28;19904;-65
2022/09/19 13:37:54;;;;;;;;;;;;;;;;;;5049919;28;20019;-67
2022/09/19 13:40:21;;;;;;;;;;;;;;;;;;5050243;28;19983;-67
2022/09/19 13:42:47;;;;;;;;;;;;;;;;;;5050440;28;19967;-68
2022/09/19 13:45:13;;;;;;;;;;;;;;;;;;5049846;28;19908;-68
2022/09/19 13:47:39;;;;;;;;;;;;;;;;;;5049693;28;20361;-68
2022/09/19 13:50:07;;;;;;;;;;;;;;;;;;5049473;28;19959;-67
2022/09/19 13:52:34;;;;;;;;;;;;;;;;;;5049602;28;20273;-68
2022/09/19 13:55:02;;;;;;;;;;;;;;;;;;5049681;28;19917;-68
2022/09/19 13:57:31;;;;;;;;;;;;;;;;;;5048877;28;20296;-68
2022/09/19 13:59:58;;;;;;;;;;;;;;;;;;5045813;28;20368;-68
2022/09/19 14:02:24;;;;;;;;;;;;;;;;;;5049093;28;20279;-68
2022/09/19 14:04:53;;;;;;;;;;;;;;;;;;5049112;28;20287;-67
2022/09/19 14:07:20;;;;;;;;;;;;;;;;;;5050438;28;20629;-68
2022/09/19 14:09:46;;;;;;;;;;;;;;;;;;5049130;28;20314;-68
2022/09/19 14:12:12;;;;;;;;;;;;;;;;;;5049412;28;20260;-68
2022/09/19 14:14:41;;;;;;;;;;;;;;;;;;5049041;28;20116;-69
2022/09/19 14:17:09;;;;;;;;;;;;;;;;;;5049404;28;20293;-67
2022/09/19 14:19:35;;;;;;;;;;;;;;;;;;5048857;28;20116;-66
2022/09/19 14:22:02;;;;;;;;;;;;;;;;;;5049170;28;19904;-69
2022/09/19 14:24:28;;;;;;;;;;;;;;;;;;5048918;28;20777;-69
2022/09/19 14:26:54;;;;;;;;;;;;;;;;;;5048044;28;20425;-68
2022/09/19 14:29:20;;;;;;;;;;;;;;;;;;5046277;28;20041;-67
2022/09/19 14:31:46;;;;;;;;;;;;;;;;;;5042492;28;19948;-68
2022/09/19 14:34:14;;;;;;;;;;;;;;;;;;5048556;28;25094;-69
2022/09/19 14:36:40;;;;;;;;;;;;;;;;;;5049541;28;20086;-68
2022/09/19 14:39:06;;;;;;;;;;;;;;;;;;5049174;28;19904;-70
2022/09/19 14:41:32;;;;;;;;;;;;;;;;;;5048620;28;20118;-70
2022/09/19 14:43:59;;;;;;;;;;;;;;;;;;5048788;28;19915;-70
2022/09/19 14:46:26;;;;;;;;;;;;;;;;;;5046141;28;20003;-66
2022/09/19 14:48:53;;;;;;;;;;;;;;;;;;5048515;28;19911;-68
2022/09/19 14:51:19;;;;;;;;;;;;;;;;;;5048419;28;19932;-68
2022/09/19 14:53:45;;;;;;;;;;;;;;;;;;5048995;28;19936;-69
2022/09/19 14:56:12;;;;;;;;;;;;;;;;;;5045661;28;20029;-67
2022/09/19 14:58:39;;;;;;;;;;;;;;;;;;5048928;28;20295;-67
2022/09/19 15:01:06;;;;;;;;;;;;;;;;;;5048755;28;20129;-68
2022/09/19 15:03:32;;;;;;;;;;;;;;;;;;5048838;28;20306;-68
2022/09/19 15:05:58;;;;;;;;;;;;;;;;;;5049142;28;19991;-68
2022/09/19 15:08:24;;;;;;;;;;;;;;;;;;5048614;28;20479;-69
2022/09/19 15:10:50;;;;;;;;;;;;;;;;;;5048791;28;20112;-68
2022/09/19 15:13:15;;;;;;;;;;;;;;;;;;5048609;28;20826;-67
2022/09/19 15:15:42;;;;;;;;;;;;;;;;;;5048889;28;20434;-69
2022/09/19 15:18:08;;;;;;;;;;;;;;;;;;5047768;28;20372;-68
2022/09/19 15:20:33;;;;;;;;;;;;;;;;;;5049209;28;19934;-69
2022/09/19 15:22:59;;;;;;;;;;;;;;;;;;5048934;28;20316;-69
2022/09/19 15:25:27;;;;;;;;;;;;;;;;;;5029693;28;20261;-68
2022/09/19 15:27:53;;;;;;;;;;;;;;;;;;5041577;28;20368;-67
2022/09/19 15:30:20;;;;;;;;;;;;;;;;;;5048355;28;20539;-70
2022/09/19 15:32:47;;;;;;;;;;;;;;;;;;5049246;28;20367;-70
2022/09/19 15:35:13;;;;;;;;;;;;;;;;;;5049047;28;20779;-70
2022/09/19 15:37:40;;;;;;;;;;;;;;;;;;5049841;28;20330;-69
2022/09/19 15:40:06;;;;;;;;;;;;;;;;;;5046723;28;20748;-69
2022/09/19 15:42:31;;;;;;;;;;;;;;;;;;5048876;28;20308;-68
2022/09/19 15:45:00;;;;;;;;;;;;;;;;;;5047562;28;20126;-71
2022/09/19 15:47:26;;;;;;;;;;;;;;;;;;5050205;28;20285;-69
2022/09/19 15:49:52;;;;;;;;;;;;;;;;;;5052581;28;19909;-69
2022/09/19 15:52:18;;;;;;;;;;;;;;;;;;5053399;28;19912;-68
2022/09/19 15:54:44;;;;;;;;;;;;;;;;;;5053000;28;19911;-70
2022/09/19 15:57:10;;;;;;;;;;;;;;;;;;5052742;28;19917;-69
2022/09/19 15:59:36;;;;;;;;;;;;;;;;;;5052765;28;19916;-71
2022/09/19 16:02:08;;;;;;;;;;;;;;;;;;5053239;28;19916;-70
2022/09/19 16:04:33;;;;;;;;;;;;;;;;;;5053456;28;19943;-68
2022/09/19 16:09:44;;;;;;;;;;;;;;;;;;5053613;28;19911;-69
2022/09/19 16:12:10;;;;;;;;;;;;;;;;;;5053182;28;19909;-69
2022/09/19 16:14:36;;;;;;;;;;;;;;;;;;5052391;28;20396;-70
2022/09/19 16:17:03;;;;;;;;;;;;;;;;;;5052856;28;20446;-70
2022/09/19 16:19:29;;;;;;;;;;;;;;;;;;5053179;28;20236;-69
2022/09/19 16:21:55;;;;;;;;;;;;;;;;;;5052586;28;19913;-69
2022/09/19 16:24:20;;;;;;;;;;;;;;;;;;5053294;28;20432;-69
2022/09/19 16:26:46;;;;;;;;;;;;;;;;;;5052122;28;20274;-68
2022/09/19 16:29:12;;;;;;;;;;;;;;;;;;5051980;28;20761;-68
2022/09/19 16:31:38;;;;;;;;;;;;;;;;;;5053037;28;20351;-68
2022/09/19 16:34:04;;;;;;;;;;;;;;;;;;5053128;28;20370;-69
2022/09/19 16:36:30;;;;;;;;;;;;;;;;;;5052261;28;20003;-69
2022/09/19 16:38:56;;;;;;;;;;;;;;;;;;5052688;28;20169;-69
2022/09/19 16:41:22;;;;;;;;;;;;;;;;;;5052541;28;19912;-69
2022/09/19 16:43:49;;;;;;;;;;;;;;;;;;5051978;28;19957;-69
2022/09/19 16:46:15;;;;;;;;;;;;;;;;;;5052242;28;20245;-69
2022/09/19 16:48:43;;;;;;;;;;;;;;;;;;5051762;28;20364;-69
2022/09/19 16:51:09;;;;;;;;;;;;;;;;;;5051715;28;20277;-69
2022/09/19 16:53:35;;;;;;;;;;;;;;;;;;5052470;28;20270;-69
2022/09/19 16:56:00;;;;;;;;;;;;;;;;;;5051956;28;20170;-68
2022/09/19 16:58:26;;;;;;;;;;;;;;;;;;5051630;28;20750;-69
2022/09/19 17:00:53;;;;;;;;;;;;;;;;;;5052579;28;20689;-69
2022/09/19 17:03:20;;;;;;;;;;;;;;;;;;5051515;28;20299;-69